ENML/MOL METAR and TAF weather

Enter ICAO airport designator
Station Type Date Time Source
ENML METAR 2019/08/24 20:20 UTC NOAA

ENML 242020Z AUTO 02006KT 360V060 9999NDV FEW076/// BKN130/// 15/14 Q1018


Station Type Date Time Source
ENML Decoded METAR 2019/08/24 20:20 UTC NOAA

Station name not available
Aug 24, 2019 - 04:20 PM EDT / 2019.08.24 2020 UTC
Wind: from the NNE (020 degrees) at 7 MPH (6 KT) (direction variable):0
Sky conditions: mostly cloudy
Temperature: 59 F (15 C)
Dew Point: 57 F (14 C)
Relative Humidity: 93%
Pressure (altimeter): 30.06 in. Hg (1018 hPa)
ob: ENML 242020Z AUTO 02006KT 360V060 9999NDV FEW076/// BKN130/// 15/14 Q1018
cycle: 20

Station Type Date Time Source
ENML TAF UTC NOAA

Error!

Example: see airport list